Time;durP1;ratioP1;P1;durP2;ratioP2;P2;SDS_P1;SDS_P2;PMS_P1;PMS_P2;Temp;Humidity;BMP_temperature;BMP_pressure;BME280_temperature;BME280_humidity;BME280_pressure;Samples;Min_cycle;Max_cycle;Signal;HPM_P1;HPM_P2
2022/03/22 00:01:14;;;;;;;;;;;;;;;2.79;37.57;103102.00;1651256;86;20280;-70
2022/03/22 00:03:46;;;;;;;;;;;;;;;2.79;37.62;103102.39;1651349;86;20862;-70
2022/03/22 00:06:09;;;;;;;;;;;;;;;2.77;37.48;103107.81;1650335;86;20165;-70
2022/03/22 00:08:35;;;;;;;;;;;;;;;2.74;37.64;103107.64;1644490;86;20224;-71
2022/03/22 00:11:01;;;;;;;;;;;;;;;2.70;37.64;103104.44;1651293;86;20189;-70
2022/03/22 00:13:28;;;;;;;;;;;;;;;2.66;37.74;103102.98;1650788;86;20192;-70
2022/03/22 00:15:54;;;;;;;;;;;;;;;2.64;37.83;103104.57;1652918;86;20126;-70
2022/03/22 00:18:19;;;;;;;;;;;;;;;2.60;37.79;103103.06;1617332;88;20239;-70
2022/03/22 00:20:49;;;;;;;;;;;;;;;2.56;37.78;103107.52;1618736;88;20139;-71
2022/03/22 00:23:18;;;;;;;;;;;;;;;2.51;37.97;103110.20;1660235;85;20225;-71
2022/03/22 00:25:44;;;;;;;;;;;;;;;2.47;38.04;103104.05;1651426;87;20140;-71
2022/03/22 00:28:12;;;;;;;;;;;;;;;2.45;38.00;103107.30;1647045;85;20570;-71
2022/03/22 00:30:39;;;;;;;;;;;;;;;2.44;38.05;103104.27;1651388;85;20157;-71
2022/03/22 00:33:07;;;;;;;;;;;;;;;2.44;38.05;103102.59;1628158;86;20227;-71
2022/03/22 00:35:36;;;;;;;;;;;;;;;2.42;38.00;103098.20;1626126;87;20140;-70
2022/03/22 00:38:05;;;;;;;;;;;;;;;2.40;38.11;103107.44;1636426;86;20233;-71
2022/03/22 00:40:31;;;;;;;;;;;;;;;2.32;38.03;103101.89;1632437;86;20473;-71
2022/03/22 00:42:57;;;;;;;;;;;;;;;2.25;38.00;103104.48;1627814;87;20372;-70
2022/03/22 00:45:28;;;;;;;;;;;;;;;2.16;37.98;103105.23;1632353;87;20481;-70
2022/03/22 00:47:55;;;;;;;;;;;;;;;2.10;38.07;103098.89;1672456;85;20931;-71
2022/03/22 00:50:23;;;;;;;;;;;;;;;2.05;38.21;103094.83;1651043;85;20630;-71
2022/03/22 00:52:50;;;;;;;;;;;;;;;2.01;38.24;103102.20;1645352;85;20530;-71
2022/03/22 00:55:16;;;;;;;;;;;;;;;1.94;38.28;103095.86;1610847;87;20580;-71
2022/03/22 00:57:44;;;;;;;;;;;;;;;1.88;38.33;103096.38;1635376;87;20170;-71
2022/03/22 01:00:12;;;;;;;;;;;;;;;1.81;38.41;103101.03;1626089;87;20515;-71
2022/03/22 01:02:42;;;;;;;;;;;;;;;1.70;38.53;103099.11;1607886;87;20616;-71
2022/03/22 01:05:13;;;;;;;;;;;;;;;1.62;38.42;103099.05;1630792;87;20569;-70
2022/03/22 01:07:42;;;;;;;;;;;;;;;1.50;38.57;103092.84;1635602;87;20441;-70
2022/03/22 01:10:10;;;;;;;;;;;;;;;1.41;38.50;103096.11;1643786;85;20662;-71
2022/03/22 01:12:37;;;;;;;;;;;;;;;1.32;38.45;103090.05;1646993;85;20518;-71
2022/03/22 01:15:15;;;;;;;;;;;;;;;1.23;38.48;103091.16;1653712;85;20744;-70
2022/03/22 01:17:44;;;;;;;;;;;;;;;1.14;38.67;103086.37;1675791;85;20716;-70
2022/03/22 01:20:11;;;;;;;;;;;;;;;1.08;38.66;103088.92;1612972;87;20145;-71
2022/03/22 01:22:41;;;;;;;;;;;;;;;0.99;38.85;103087.59;1665336;85;20474;-70
2022/03/22 01:25:10;;;;;;;;;;;;;;;0.94;38.95;103086.82;1651695;85;20460;-70
2022/03/22 01:27:36;;;;;;;;;;;;;;;0.85;38.81;103087.52;1599528;87;20749;-70
2022/03/22 01:30:07;;;;;;;;;;;;;;;0.76;38.89;103082.72;1614927;87;20193;-71
2022/03/22 01:32:35;;;;;;;;;;;;;;;0.72;39.01;103084.58;1609597;87;20175;-71
2022/03/22 01:35:02;;;;;;;;;;;;;;;0.71;39.05;103087.91;1659816;85;20392;-71
2022/03/22 01:37:28;;;;;;;;;;;;;;;0.67;39.41;103088.50;1660725;85;20441;-71
2022/03/22 01:39:53;;;;;;;;;;;;;;;0.62;39.16;103088.20;1657652;85;20889;-70
2022/03/22 01:42:21;;;;;;;;;;;;;;;0.56;39.57;103092.02;1674631;85;20749;-70
2022/03/22 01:44:48;;;;;;;;;;;;;;;0.48;39.28;103092.83;1675885;85;20426;-70
2022/03/22 01:47:17;;;;;;;;;;;;;;;0.45;39.33;103087.94;1657451;85;20842;-71
2022/03/22 01:49:43;;;;;;;;;;;;;;;0.43;39.55;103089.11;1668231;85;20457;-70
2022/03/22 01:52:19;;;;;;;;;;;;;;;0.39;39.57;103087.14;1673064;85;20106;-70
2022/03/22 01:54:50;;;;;;;;;;;;;;;0.36;39.61;103088.22;1671653;85;20949;-70
2022/03/22 01:57:20;;;;;;;;;;;;;;;0.34;39.58;103085.96;1672762;85;20417;-70
2022/03/22 01:59:47;;;;;;;;;;;;;;;0.32;39.72;103079.89;1675634;85;20710;-70
2022/03/22 02:07:45;;;;;;;;;;;;;;;0.19;39.79;103070.97;1645715;85;20495;-70
2022/03/22 02:10:12;;;;;;;;;;;;;;;0.12;40.02;103072.61;1660137;85;20466;-70
2022/03/22 02:12:38;;;;;;;;;;;;;;;0.07;40.08;103072.31;1673858;85;20324;-71
2022/03/22 02:15:05;;;;;;;;;;;;;;;0.05;39.91;103075.53;1624389;87;20450;-70
2022/03/22 02:17:31;;;;;;;;;;;;;;;0.00;40.10;103073.56;1633686;87;20202;-71
2022/03/22 02:19:58;;;;;;;;;;;;;;;-0.04;40.26;103077.11;1634267;87;20899;-71
2022/03/22 02:22:28;;;;;;;;;;;;;;;-0.05;40.11;103076.23;1625976;87;20229;-71
2022/03/22 02:24:54;;;;;;;;;;;;;;;-0.08;40.33;103073.48;1650852;85;20193;-70
2022/03/22 02:27:21;;;;;;;;;;;;;;;-0.13;40.33;103075.22;1658181;85;20321;-71
2022/03/22 02:29:46;;;;;;;;;;;;;;;-0.18;40.30;103077.84;1646264;84;21419;-71
2022/03/22 02:32:13;;;;;;;;;;;;;;;-0.23;40.30;103068.64;1646358;87;20218;-71
2022/03/22 02:34:40;;;;;;;;;;;;;;;-0.27;40.25;103075.95;1646658;85;20256;-71
2022/03/22 02:37:06;;;;;;;;;;;;;;;-0.29;40.23;103073.31;1623704;87;20227;-70
2022/03/22 02:39:34;;;;;;;;;;;;;;;-0.32;40.17;103078.19;1616339;87;20676;-70
2022/03/22 02:42:00;;;;;;;;;;;;;;;-0.35;40.30;103076.32;1624772;87;20214;-70
2022/03/22 02:44:30;;;;;;;;;;;;;;;-0.34;40.41;103078.47;1625687;86;20223;-70
2022/03/22 02:46:56;;;;;;;;;;;;;;;-0.35;40.39;103072.51;1643029;86;20501;-70
2022/03/22 02:49:22;;;;;;;;;;;;;;;-0.40;40.50;103075.52;1650927;86;20164;-70
2022/03/22 02:51:48;;;;;;;;;;;;;;;-0.47;40.49;103079.30;1646563;86;20192;-70
2022/03/22 02:54:14;;;;;;;;;;;;;;;-0.54;40.76;103077.53;1649958;86;20302;-70
2022/03/22 02:56:39;;;;;;;;;;;;;;;-0.59;40.76;103074.68;1651353;86;21143;-70
2022/03/22 02:59:05;;;;;;;;;;;;;;;-0.62;40.87;103082.48;1648879;86;20610;-70
2022/03/22 03:01:32;;;;;;;;;;;;;;;-0.63;40.72;103077.78;1644231;86;20323;-70
2022/03/22 03:04:00;;;;;;;;;;;;;;;-0.63;40.71;103077.78;1639307;86;20268;-70
2022/03/22 03:06:28;;;;;;;;;;;;;;;-0.65;40.74;103075.91;1631236;87;20110;-70
2022/03/22 03:08:54;;;;;;;;;;;;;;;-0.70;40.76;103077.75;1668263;85;20128;-70
2022/03/22 03:11:26;;;;;;;;;;;;;;;-0.70;40.76;103079.41;1628114;86;20349;-70
2022/03/22 03:16:37;;;;;;;;;;;;;;;-0.76;41.07;103078.98;1623491;87;20111;-70
2022/03/22 03:19:02;;;;;;;;;;;;;;;-0.83;40.94;103079.33;1616046;88;20448;-70
2022/03/22 03:21:28;;;;;;;;;;;;;;;-0.88;41.05;103084.48;1659535;85;20437;-70
2022/03/22 03:23:54;;;;;;;;;;;;;;;-0.93;40.96;103082.88;1656990;85;20171;-70
2022/03/22 03:26:20;;;;;;;;;;;;;;;-0.95;41.27;103089.52;1652999;86;20157;-70
2022/03/22 03:28:46;;;;;;;;;;;;;;;-0.95;41.35;103086.97;1652903;86;20130;-70
2022/03/22 03:31:12;;;;;;;;;;;;;;;-0.97;41.10;103089.80;1641079;86;20551;-70
2022/03/22 03:33:38;;;;;;;;;;;;;;;-1.00;41.42;103090.84;1630886;86;20204;-70
2022/03/22 03:36:04;;;;;;;;;;;;;;;-1.01;41.54;103087.42;1626250;87;20254;-70
2022/03/22 03:38:30;;;;;;;;;;;;;;;-1.03;41.62;103094.05;1635086;86;20134;-70
2022/03/22 03:43:40;;;;;;;;;;;;;;;-1.04;41.69;103089.74;1622493;87;20228;-71
2022/03/22 03:48:50;;;;;;;;;;;;;;;-1.06;41.78;103093.86;1647024;85;20234;-70
2022/03/22 03:51:16;;;;;;;;;;;;;;;-1.07;41.69;103093.76;1660853;85;20209;-70
2022/03/22 03:53:42;;;;;;;;;;;;;;;-1.11;42.12;103091.39;1631530;87;20268;-70
2022/03/22 03:56:08;;;;;;;;;;;;;;;-1.10;41.85;103093.54;1631834;87;20700;-70
2022/03/22 03:58:34;;;;;;;;;;;;;;;-1.07;42.20;103095.02;1619841;87;20272;-70
2022/03/22 04:01:00;;;;;;;;;;;;;;;-1.07;42.05;103095.02;1609965;87;20216;-70
2022/03/22 04:03:33;;;;;;;;;;;;;;;-1.08;42.27;103091.99;1625122;86;20229;-70
2022/03/22 04:05:59;;;;;;;;;;;;;;;-1.10;42.16;103093.54;1637179;86;20282;-70
2022/03/22 04:08:24;;;;;;;;;;;;;;;-1.11;42.33;103095.20;1634087;87;21198;-70
2022/03/22 04:10:50;;;;;;;;;;;;;;;-1.13;42.29;103098.02;1633255;87;20150;-70
2022/03/22 04:13:16;;;;;;;;;;;;;;;-1.15;42.60;103090.67;1631574;87;20750;-71
2022/03/22 04:15:42;;;;;;;;;;;;;;;-1.16;42.42;103089.30;1632312;87;20272;-70
2022/03/22 04:18:07;;;;;;;;;;;;;;;-1.19;42.35;103091.23;1641477;85;20209;-70
2022/03/22 04:20:33;;;;;;;;;;;;;;;-1.21;42.36;103088.97;1654264;85;20863;-71
2022/03/22 04:22:59;;;;;;;;;;;;;;;-1.22;42.63;103090.13;1673846;85;20449;-71
2022/03/22 04:25:25;;;;;;;;;;;;;;;-1.19;42.43;103097.96;1670499;85;20208;-70
2022/03/22 04:33:21;;;;;;;;;;;;;;;-1.20;42.26;103095.81;1658864;85;20216;-70
2022/03/22 04:35:50;;;;;;;;;;;;;;;-1.23;42.21;103094.32;1657687;85;20191;-70
2022/03/22 04:38:15;;;;;;;;;;;;;;;-1.23;42.77;103098.52;1649352;85;20128;-70
2022/03/22 04:40:41;;;;;;;;;;;;;;;-1.27;42.34;103096.14;1636082;86;20512;-70
2022/03/22 04:43:07;;;;;;;;;;;;;;;-1.30;42.50;103095.92;1671529;85;20290;-70
2022/03/22 04:45:34;;;;;;;;;;;;;;;-1.36;42.39;103100.55;1672665;85;20198;-70
2022/03/22 04:48:00;;;;;;;;;;;;;;;-1.43;42.39;103099.61;1655389;85;20107;-70
2022/03/22 04:50:25;;;;;;;;;;;;;;;-1.46;42.38;103105.34;1672444;85;20151;-70
2022/03/22 04:58:20;;;;;;;;;;;;;;;-1.48;42.50;103108.55;1644623;87;20470;-70
2022/03/22 05:00:46;;;;;;;;;;;;;;;-1.48;42.44;103115.77;1673147;85;20891;-71
2022/03/22 05:03:12;;;;;;;;;;;;;;;-1.48;42.44;103119.58;1674952;85;20327;-70
2022/03/22 05:08:22;;;;;;;;;;;;;;;-1.52;42.82;103120.52;1621376;87;20173;-70
2022/03/22 05:10:47;;;;;;;;;;;;;;;-1.56;42.84;103118.13;1643931;87;20200;-70
2022/03/22 05:13:13;;;;;;;;;;;;;;;-1.54;42.87;103122.94;1654854;85;20165;-70
2022/03/22 05:15:40;;;;;;;;;;;;;;;-1.53;42.91;103125.09;1646921;85;20546;-70
2022/03/22 05:18:06;;;;;;;;;;;;;;;-1.53;42.89;103125.97;1673005;85;20117;-70
2022/03/22 05:20:32;;;;;;;;;;;;;;;-1.52;43.07;103128.13;1675304;85;20168;-70
2022/03/22 05:22:58;;;;;;;;;;;;;;;-1.49;43.18;103124.54;1676424;85;20118;-71
2022/03/22 05:25:31;;;;;;;;;;;;;;;-1.47;43.26;103123.00;1638981;85;20161;-71
2022/03/22 05:27:52;;;;;;;;;;;;;;;-1.41;43.27;103125.98;1679586;82;20093;-71
2022/03/22 05:30:18;;;;;;;;;;;;;;;-1.34;43.49;103120.58;1662387;85;20192;-70
2022/03/22 05:32:44;;;;;;;;;;;;;;;-1.29;43.37;103119.27;1673063;84;20181;-70
2022/03/22 05:35:10;;;;;;;;;;;;;;;-1.25;43.57;103117.83;1647276;84;20232;-70
2022/03/22 05:37:43;;;;;;;;;;;;;;;-1.19;43.54;103117.00;1670012;84;20185;-70
2022/03/22 05:40:09;;;;;;;;;;;;;;;-1.10;43.57;103116.00;1667701;84;20507;-70
2022/03/22 05:42:41;;;;;;;;;;;;;;;-0.97;43.76;103115.57;1664280;84;20136;-71
2022/03/22 05:45:11;;;;;;;;;;;;;;;-0.81;43.65;103123.11;1663833;86;20102;-71
2022/03/22 05:47:37;;;;;;;;;;;;;;;-0.66;43.72;103116.95;1659661;86;20138;-71
2022/03/22 05:50:05;;;;;;;;;;;;;;;-0.49;43.74;103124.05;1653425;86;20236;-70
2022/03/22 05:52:30;;;;;;;;;;;;;;;-0.33;43.88;103124.72;1653862;86;20166;-71
2022/03/22 05:54:56;;;;;;;;;;;;;;;-0.18;43.89;103123.62;1644675;85;20290;-71
2022/03/22 05:57:22;;;;;;;;;;;;;;;-0.07;43.88;103121.41;1685361;83;20227;-70
2022/03/22 05:59:48;;;;;;;;;;;;;;;0.02;43.87;103119.45;1685336;83;20212;-71
2022/03/22 06:02:13;;;;;;;;;;;;;;;0.14;43.88;103127.91;1647183;86;20268;-71
2022/03/22 06:04:39;;;;;;;;;;;;;;;0.30;43.96;103129.80;1646515;86;20160;-70
2022/03/22 06:07:05;;;;;;;;;;;;;;;0.49;43.90;103129.34;1677059;83;20213;-70
2022/03/22 06:09:31;;;;;;;;;;;;;;;0.72;44.19;103124.44;1677080;85;20217;-71
2022/03/22 06:11:57;;;;;;;;;;;;;;;1.03;44.26;103126.89;1659464;84;20213;-70
2022/03/22 06:14:23;;;;;;;;;;;;;;;1.38;44.24;103130.33;1659096;84;20542;-70
2022/03/22 06:16:49;;;;;;;;;;;;;;;1.75;44.27;103129.59;1665229;83;20208;-70
2022/03/22 06:19:14;;;;;;;;;;;;;;;2.12;44.41;103128.81;1659463;84;20210;-70
2022/03/22 06:21:40;;;;;;;;;;;;;;;2.49;44.25;103128.39;1643080;85;20235;-71
2022/03/22 06:24:07;;;;;;;;;;;;;;;2.87;44.24;103125.42;1639962;87;20220;-71
2022/03/22 06:26:33;;;;;;;;;;;;;;;3.28;44.26;103127.66;1639316;85;20241;-71
2022/03/22 06:29:00;;;;;;;;;;;;;;;3.71;44.24;103129.52;1633361;86;20266;-71
2022/03/22 06:31:27;;;;;;;;;;;;;;;4.12;44.21;103126.53;1649423;85;20126;-71
2022/03/22 06:33:53;;;;;;;;;;;;;;;4.51;44.17;103125.05;1671368;84;20105;-71
2022/03/22 06:36:19;;;;;;;;;;;;;;;4.93;44.08;103124.92;1672207;83;20101;-71
2022/03/22 06:38:45;;;;;;;;;;;;;;;5.33;43.95;103121.21;1643718;85;20209;-71
2022/03/22 06:41:11;;;;;;;;;;;;;;;5.70;43.82;103121.59;1634418;86;20196;-71
2022/03/22 06:43:36;;;;;;;;;;;;;;;6.03;43.83;103117.04;1640537;86;20733;-71
2022/03/22 06:46:03;;;;;;;;;;;;;;;6.38;43.77;103118.49;1643228;85;20238;-71
2022/03/22 06:48:29;;;;;;;;;;;;;;;6.73;43.68;103122.91;1642428;86;20120;-71
2022/03/22 06:50:54;;;;;;;;;;;;;;;7.08;43.74;103125.14;1641913;87;20196;-71
2022/03/22 06:53:20;;;;;;;;;;;;;;;7.38;43.76;103120.25;1658910;84;20259;-71
2022/03/22 06:55:47;;;;;;;;;;;;;;;7.69;43.70;103120.97;1659269;84;20764;-71
2022/03/22 06:58:16;;;;;;;;;;;;;;;8.00;43.58;103119.44;1672933;84;20175;-71
2022/03/22 07:00:41;;;;;;;;;;;;;;;8.33;43.60;103119.31;1634181;84;999710;-71
2022/03/22 07:03:07;;;;;;;;;;;;;;;8.69;43.53;103116.19;1672567;84;20202;-71
2022/03/22 07:05:33;;;;;;;;;;;;;;;9.12;43.65;103117.95;1660222;84;20212;-71
2022/03/22 07:07:59;;;;;;;;;;;;;;;9.64;43.62;103119.44;1657456;84;20771;-71
2022/03/22 07:10:26;;;;;;;;;;;;;;;10.23;43.58;103119.75;1665489;83;20133;-71
2022/03/22 07:12:56;;;;;;;;;;;;;;;10.77;43.32;103118.45;1666594;84;20223;-71
2022/03/22 07:15:32;;;;;;;;;;;;;;;11.27;43.06;103120.84;1680652;83;20194;-71
2022/03/22 07:18:00;;;;;;;;;;;;;;;11.55;42.59;103122.27;1640381;85;20151;-72
2022/03/22 07:20:27;;;;;;;;;;;;;;;11.73;42.51;103124.34;1634537;86;20210;-71
2022/03/22 07:22:53;;;;;;;;;;;;;;;11.82;42.72;103120.25;1650388;84;20202;-71
2022/03/22 07:25:19;;;;;;;;;;;;;;;11.90;42.63;103123.86;1653641;86;20252;-72
2022/03/22 07:27:45;;;;;;;;;;;;;;;12.01;42.61;103124.45;1659732;84;20330;-72
2022/03/22 07:30:12;;;;;;;;;;;;;;;12.16;42.70;103122.13;1659589;86;20230;-72
2022/03/22 07:32:39;;;;;;;;;;;;;;;12.40;42.62;103122.55;1658973;86;20194;-72
2022/03/22 07:35:06;;;;;;;;;;;;;;;12.68;42.59;103128.16;1657771;85;20157;-71
2022/03/22 07:37:32;;;;;;;;;;;;;;;12.94;42.69;103124.23;1631397;86;20234;-72
2022/03/22 07:39:58;;;;;;;;;;;;;;;13.18;42.53;103126.30;1652251;86;22224;-72
2022/03/22 07:42:29;;;;;;;;;;;;;;;13.38;42.65;103125.27;1639941;86;20106;-72
2022/03/22 07:44:58;;;;;;;;;;;;;;;13.58;42.52;103130.25;1647358;84;20492;-72
2022/03/22 07:47:24;;;;;;;;;;;;;;;13.70;42.33;103125.63;1657771;85;20160;-72
2022/03/22 07:55:19;;;;;;;;;;;;;;;14.01;42.35;103129.44;1658202;84;20219;-71
2022/03/22 07:57:45;;;;;;;;;;;;;;;14.07;42.23;103129.03;1653562;86;20561;-71
2022/03/22 08:00:12;;;;;;;;;;;;;;;14.18;42.19;103131.73;1655646;84;20253;-72
2022/03/22 08:02:38;;;;;;;;;;;;;;;14.27;42.35;103125.75;1647278;85;20261;-72
2022/03/22 08:05:05;;;;;;;;;;;;;;;14.45;42.16;103127.23;1644439;86;20809;-72
2022/03/22 08:07:31;;;;;;;;;;;;;;;14.63;42.39;103127.78;1647359;86;20713;-72
2022/03/22 08:09:57;;;;;;;;;;;;;;;14.77;42.30;103121.81;1645177;86;20220;-72
2022/03/22 08:12:23;;;;;;;;;;;;;;;14.79;42.38;103120.09;1623376;87;20231;-72
2022/03/22 08:14:49;;;;;;;;;;;;;;;14.80;42.33;103125.74;1620441;86;20952;-72
2022/03/22 08:17:15;;;;;;;;;;;;;;;14.72;42.43;103121.34;1632640;86;22384;-72
2022/03/22 08:19:42;;;;;;;;;;;;;;;14.65;42.32;103120.86;1643152;84;20459;-72
2022/03/22 08:22:08;;;;;;;;;;;;;;;14.70;42.31;103116.55;1642505;86;20130;-72
2022/03/22 08:24:34;;;;;;;;;;;;;;;14.76;41.81;103121.80;1650196;85;20137;-72
2022/03/22 08:27:00;;;;;;;;;;;;;;;14.74;41.75;103117.89;1685579;84;20172;-71
2022/03/22 08:29:26;;;;;;;;;;;;;;;14.74;41.74;103119.62;1673458;83;20214;-72
2022/03/22 08:31:52;;;;;;;;;;;;;;;14.72;41.38;103121.34;1649256;85;20157;-71
2022/03/22 08:34:19;;;;;;;;;;;;;;;14.62;41.40;103118.23;1630286;87;20682;-72
2022/03/22 08:36:45;;;;;;;;;;;;;;;14.55;41.40;103117.34;1641077;86;20504;-71
2022/03/22 08:39:11;;;;;;;;;;;;;;;14.53;41.42;103114.73;1641145;86;20209;-72
2022/03/22 08:41:39;;;;;;;;;;;;;;;14.53;41.24;103112.13;1676739;84;20217;-72
2022/03/22 08:44:05;;;;;;;;;;;;;;;14.56;41.25;103118.63;1658626;85;20131;-72
2022/03/22 08:46:31;;;;;;;;;;;;;;;14.61;40.98;103120.39;1662554;85;20382;-71
2022/03/22 08:48:57;;;;;;;;;;;;;;;14.62;41.14;103116.92;1641087;85;20868;-71
2022/03/22 08:51:26;;;;;;;;;;;;;;;14.52;40.79;103116.89;1648894;85;20873;-72
2022/03/22 08:53:53;;;;;;;;;;;;;;;14.44;40.68;103116.39;1646524;85;20141;-71
2022/03/22 08:56:22;;;;;;;;;;;;;;;14.35;40.87;103109.77;1650169;85;20119;-72
2022/03/22 08:58:52;;;;;;;;;;;;;;;14.24;40.41;103109.67;1651159;85;20113;-72
2022/03/22 09:01:16;;;;;;;;;;;;;;;14.11;40.37;103107.39;1659235;85;20550;-71
2022/03/22 09:03:42;;;;;;;;;;;;;;;13.99;40.27;103106.00;1669245;85;20176;-71
2022/03/22 09:06:16;;;;;;;;;;;;;;;13.88;40.13;103100.69;1667313;85;20449;-71
2022/03/22 09:08:42;;;;;;;;;;;;;;;13.83;40.21;103102.38;1624248;86;20809;-71
2022/03/22 09:11:09;;;;;;;;;;;;;;;13.71;39.85;103098.34;1657405;85;20623;-71
2022/03/22 09:13:37;;;;;;;;;;;;;;;13.64;40.03;103095.23;1655389;85;20158;-71
2022/03/22 09:16:04;;;;;;;;;;;;;;;13.55;39.90;103097.30;1656803;85;20485;-71
2022/03/22 09:18:32;;;;;;;;;;;;;;;13.48;39.48;103093.34;1663009;84;20218;-71
2022/03/22 09:20:59;;;;;;;;;;;;;;;13.44;39.38;103091.56;1641121;85;20119;-71
2022/03/22 09:23:25;;;;;;;;;;;;;;;13.37;39.20;103102.30;1647385;85;20438;-70
2022/03/22 09:25:51;;;;;;;;;;;;;;;13.33;39.28;103096.63;1636197;85;20741;-71
2022/03/22 09:28:17;;;;;;;;;;;;;;;13.35;39.33;103092.75;1647251;85;20184;-70
2022/03/22 09:30:42;;;;;;;;;;;;;;;13.36;39.21;103090.59;1667882;85;21180;-71
2022/03/22 09:33:11;;;;;;;;;;;;;;;13.34;39.18;103089.28;1658871;85;20768;-71
2022/03/22 09:35:37;;;;;;;;;;;;;;;13.34;38.84;103087.10;1666152;85;20615;-71
2022/03/22 09:38:04;;;;;;;;;;;;;;;13.37;38.90;103088.02;1670608;84;20106;-71
2022/03/22 09:40:30;;;;;;;;;;;;;;;13.39;38.66;103084.14;1665845;85;20125;-71
2022/03/22 09:42:56;;;;;;;;;;;;;;;13.40;38.84;103086.75;1662762;85;20551;-71
2022/03/22 09:45:26;;;;;;;;;;;;;;;13.41;38.95;103085.02;1677366;83;20097;-71
2022/03/22 09:47:53;;;;;;;;;;;;;;;13.42;38.63;103084.17;1668750;85;20129;-71
2022/03/22 09:50:20;;;;;;;;;;;;;;;13.41;38.27;103079.40;1677314;83;20172;-71
2022/03/22 09:52:46;;;;;;;;;;;;;;;13.41;38.25;103078.10;1670594;85;20799;-71
2022/03/22 09:55:13;;;;;;;;;;;;;;;13.47;38.24;103075.58;1652079;84;20765;-71
2022/03/22 09:57:39;;;;;;;;;;;;;;;13.54;38.03;103069.98;1652641;85;20729;-71
2022/03/22 10:00:08;;;;;;;;;;;;;;;13.60;38.30;103063.55;1674530;85;20556;-71
2022/03/22 10:02:35;;;;;;;;;;;;;;;13.63;37.88;103063.58;1679712;83;20158;-71
2022/03/22 10:05:02;;;;;;;;;;;;;;;13.68;38.01;103061.91;1648817;85;20166;-71
2022/03/22 10:07:29;;;;;;;;;;;;;;;13.75;37.91;103065.02;1616584;87;20106;-71
2022/03/22 10:10:01;;;;;;;;;;;;;;;13.79;37.97;103052.48;1642524;85;21333;-71
2022/03/22 10:12:30;;;;;;;;;;;;;;;13.84;37.73;103055.13;1631390;85;20515;-71
2022/03/22 10:15:09;;;;;;;;;;;;;;;13.88;37.41;103055.17;1645274;84;20164;-71
2022/03/22 10:17:35;;;;;;;;;;;;;;;13.95;37.86;103047.43;1649106;86;20518;-71
2022/03/22 10:20:01;;;;;;;;;;;;;;;13.99;37.40;103044.88;1650732;86;20126;-71
2022/03/22 10:22:28;;;;;;;;;;;;;;;14.10;36.84;103052.73;1641986;85;20277;-71
2022/03/22 10:25:00;;;;;;;;;;;;;;;14.14;37.16;103048.00;1639964;86;20573;-71
2022/03/22 10:27:28;;;;;;;;;;;;;;;14.22;37.44;103043.73;1646937;86;20097;-71
2022/03/22 10:29:56;;;;;;;;;;;;;;;14.24;37.14;103047.22;1641651;86;20142;-71
2022/03/22 10:32:32;;;;;;;;;;;;;;;14.27;37.23;103047.23;1643433;86;20583;-71
2022/03/22 10:35:09;;;;;;;;;;;;;;;14.31;37.11;103046.41;1641057;86;20146;-71
2022/03/22 10:37:35;;;;;;;;;;;;;;;14.40;36.86;103032.59;1652477;84;20103;-71
2022/03/22 10:40:01;;;;;;;;;;;;;;;14.47;36.90;103039.61;1637187;86;20185;-71
2022/03/22 10:42:27;;;;;;;;;;;;;;;14.53;36.94;103037.05;1648772;84;20236;-71
2022/03/22 10:44:57;;;;;;;;;;;;;;;14.58;36.47;103032.70;1649248;85;20122;-71
2022/03/22 10:47:26;;;;;;;;;;;;;;;14.65;36.40;103027.11;1654112;85;20479;-71
2022/03/22 10:50:05;;;;;;;;;;;;;;;14.72;36.38;103030.19;1651049;85;20122;-71
2022/03/22 10:52:51;;;;;;;;;;;;;;;14.80;36.54;103029.80;1665828;85;20138;-72
2022/03/22 10:55:20;;;;;;;;;;;;;;;14.89;36.35;103024.64;1654194;85;20154;-71
2022/03/22 10:57:47;;;;;;;;;;;;;;;14.91;35.79;103020.30;1647562;85;20214;-71
2022/03/22 11:00:13;;;;;;;;;;;;;;;14.91;36.21;103013.79;1646476;85;20122;-71
2022/03/22 11:02:40;;;;;;;;;;;;;;;14.97;36.13;103013.81;1644177;85;20176;-71
2022/03/22 11:05:08;;;;;;;;;;;;;;;15.00;35.95;103007.75;1647632;85;20159;-71
2022/03/22 11:07:37;;;;;;;;;;;;;;;15.03;36.29;103003.42;1663093;85;20118;-71
2022/03/22 11:10:04;;;;;;;;;;;;;;;15.05;35.94;103006.03;1655505;85;20086;-71
2022/03/22 11:12:30;;;;;;;;;;;;;;;15.06;35.76;103007.77;1646267;85;20126;-71
2022/03/22 11:14:57;;;;;;;;;;;;;;;15.01;35.65;102999.94;1660053;84;20166;-71
2022/03/22 11:17:26;;;;;;;;;;;;;;;15.00;35.54;102996.89;1667746;84;20138;-71
2022/03/22 11:19:54;;;;;;;;;;;;;;;15.02;35.65;102996.47;1659347;84;20158;-71
2022/03/22 11:22:19;;;;;;;;;;;;;;;15.05;35.78;102993.00;1641536;85;20193;-71
2022/03/22 11:24:45;;;;;;;;;;;;;;;15.09;35.89;102998.20;1659540;85;20196;-71
2022/03/22 11:27:12;;;;;;;;;;;;;;;15.14;35.35;102993.00;1662957;85;20554;-71
2022/03/22 11:29:39;;;;;;;;;;;;;;;15.14;35.24;102992.57;1664792;85;20466;-71
2022/03/22 11:34:57;;;;;;;;;;;;;;;15.16;34.90;102980.41;1661773;84;20100;-71
2022/03/22 11:37:33;;;;;;;;;;;;;;;15.21;35.26;102980.00;1662763;85;20094;-71
2022/03/22 11:42:59;;;;;;;;;;;;;;;15.26;34.95;102975.23;1651547;86;37996;-71
2022/03/22 11:45:25;;;;;;;;;;;;;;;15.33;34.47;102970.03;1633150;87;20111;-71
2022/03/22 11:47:54;;;;;;;;;;;;;;;15.32;35.08;102960.91;1635296;87;20291;-71
2022/03/22 11:50:21;;;;;;;;;;;;;;;15.36;34.94;102962.22;1671886;85;20102;-71
2022/03/22 11:52:50;;;;;;;;;;;;;;;15.40;34.90;102963.09;1670662;85;20458;-71
2022/03/22 11:55:18;;;;;;;;;;;;;;;15.43;34.62;102964.41;1626778;86;20199;-71
2022/03/22 11:57:58;;;;;;;;;;;;;;;15.47;34.23;102955.28;1613799;88;20136;-71
2022/03/22 12:00:58;;;;;;;;;;;;;;;15.53;34.31;102955.72;1619029;88;20155;-71
2022/03/22 12:03:32;;;;;;;;;;;;;;;15.55;34.33;102951.38;1635606;87;20150;-71
2022/03/22 12:06:13;;;;;;;;;;;;;;;15.56;34.14;102942.69;1641841;84;20176;-71
2022/03/22 12:08:41;;;;;;;;;;;;;;;15.60;34.20;102940.52;1635971;87;20103;-71
2022/03/22 12:11:12;;;;;;;;;;;;;;;15.64;34.39;102942.26;1667531;85;20473;-71
2022/03/22 12:13:50;;;;;;;;;;;;;;;15.63;33.88;102935.30;1673633;85;20118;-71
2022/03/22 12:16:16;;;;;;;;;;;;;;;15.63;33.82;102936.61;1672871;85;20401;-71
2022/03/22 12:18:42;;;;;;;;;;;;;;;15.64;34.13;102930.52;1672532;85;20164;-71
2022/03/22 12:21:18;;;;;;;;;;;;;;;15.69;34.01;102927.48;1664922;85;20086;-71
2022/03/22 12:23:46;;;;;;;;;;;;;;;15.76;33.89;102929.22;1653921;85;20150;-71
2022/03/22 12:26:12;;;;;;;;;;;;;;;15.77;33.76;102922.26;1649850;85;20181;-71
2022/03/22 12:28:51;;;;;;;;;;;;;;;15.80;33.85;102922.26;1651765;85;20252;-71
2022/03/22 12:31:21;;;;;;;;;;;;;;;15.82;33.28;102920.52;1646752;86;20125;-71
2022/03/22 12:33:50;;;;;;;;;;;;;;;15.77;33.29;102916.61;1648890;85;20145;-71
2022/03/22 12:36:26;;;;;;;;;;;;;;;15.74;33.36;102916.61;1650361;85;20505;-71
2022/03/22 12:38:48;;;;;;;;;;;;;;;15.74;33.34;102910.52;1645474;86;20162;-71
2022/03/22 12:41:14;;;;;;;;;;;;;;;15.75;33.32;102909.22;1652034;86;20200;-71
2022/03/22 12:43:45;;;;;;;;;;;;;;;15.77;33.53;102909.22;1637455;86;20644;-71
2022/03/22 12:46:09;;;;;;;;;;;;;;;15.75;33.19;102905.73;1632043;87;20158;-71
2022/03/22 12:48:36;;;;;;;;;;;;;;;15.76;33.30;102902.26;1632295;87;20147;-70
2022/03/22 12:51:03;;;;;;;;;;;;;;;15.77;33.35;102906.17;1631808;87;20134;-70
2022/03/22 12:53:31;;;;;;;;;;;;;;;15.78;32.89;102898.78;1628510;87;20618;-70
2022/03/22 12:55:57;;;;;;;;;;;;;;;15.81;33.03;102899.21;1628035;86;20167;-70
2022/03/22 12:58:28;;;;;;;;;;;;;;;15.78;32.99;102894.87;1588238;88;20221;-70
2022/03/22 13:00:54;;;;;;;;;;;;;;;15.79;33.01;102894.00;1612181;87;20111;-70
2022/03/22 13:03:20;;;;;;;;;;;;;;;15.78;32.94;102891.39;1612790;87;20183;-70
2022/03/22 13:05:47;;;;;;;;;;;;;;;15.79;32.74;102884.86;1599118;87;20105;-70
2022/03/22 13:08:19;;;;;;;;;;;;;;;15.79;32.44;102882.69;1607149;87;20462;-70
2022/03/22 13:16:23;;;;;;;;;;;;;;;15.79;32.67;102878.34;1598887;87;20796;-70
2022/03/22 13:18:50;;;;;;;;;;;;;;;15.79;32.66;102869.64;1596202;87;20101;-70
2022/03/22 13:21:31;;;;;;;;;;;;;;;15.82;32.66;102870.52;1623626;84;20118;-70
2022/03/22 13:24:08;;;;;;;;;;;;;;;15.86;32.52;102868.33;1650199;84;20129;-70
2022/03/22 13:26:35;;;;;;;;;;;;;;;15.87;32.23;102862.67;1656251;84;20136;-70